Time;durP1;ratioP1;P1;durP2;ratioP2;P2;SDS_P1;SDS_P2;PMS_P1;PMS_P2;Temp;Humidity;BMP_temperature;BMP_pressure;BME280_temperature;BME280_humidity;BME280_pressure;Samples;Min_cycle;Max_cycle;Signal;HPM_P1;HPM_P2
2023/08/24 00:01:32;;;;;;;10.90;4.63;;;17.30;99.90;;;;;;5031079;28;20029;-64
2023/08/24 00:03:58;;;;;;;6.63;4.03;;;17.30;99.90;;;;;;5034186;28;20135;-61
2023/08/24 00:06:23;;;;;;;11.45;4.55;;;17.30;99.90;;;;;;5034303;28;20029;-61
2023/08/24 00:08:49;;;;;;;13.95;4.65;;;17.30;99.90;;;;;;5033581;28;20028;-61
2023/08/24 00:11:14;;;;;;;5.90;4.07;;;17.20;99.90;;;;;;5034727;28;20041;-60
2023/08/24 00:13:49;;;;;;;10.82;4.57;;;17.20;99.90;;;;;;5034816;28;20037;-59
2023/08/24 00:16:18;;;;;;;;;;;17.20;99.90;;;;;;5028041;28;21936;-60
2023/08/24 00:18:44;;;;;;;13.80;5.00;;;17.20;99.90;;;;;;5035227;28;19913;-62
2023/08/24 00:21:10;;;;;;;14.80;5.18;;;17.20;99.90;;;;;;5037257;28;20040;-60
2023/08/24 00:23:36;;;;;;;8.07;4.72;;;17.20;99.90;;;;;;5036132;28;20029;-60
2023/08/24 00:26:01;;;;;;;17.10;5.28;;;17.20;99.90;;;;;;5043030;28;20060;-62
2023/08/24 00:28:27;;;;;;;12.02;5.20;;;17.20;99.90;;;;;;5046342;28;20108;-60
2023/08/24 00:30:53;;;;;;;13.43;4.82;;;17.20;99.90;;;;;;5039708;28;20032;-60
2023/08/24 00:33:19;;;;;;;8.75;4.35;;;17.20;99.90;;;;;;5043249;28;20033;-59
2023/08/24 00:35:45;;;;;;;14.20;5.63;;;17.20;99.90;;;;;;5046917;28;20105;-60
2023/08/24 00:38:10;;;;;;;12.50;5.85;;;17.20;99.90;;;;;;5044634;28;20116;-62
2023/08/24 00:40:36;;;;;;;13.40;6.07;;;17.10;99.90;;;;;;5035597;28;20037;-63
2023/08/24 00:43:02;;;;;;;12.80;5.70;;;17.10;99.90;;;;;;5042251;28;20013;-60
2023/08/24 00:45:28;;;;;;;12.73;5.72;;;17.10;99.90;;;;;;5033561;28;20025;-60
2023/08/24 00:47:54;;;;;;;11.07;4.93;;;17.10;99.90;;;;;;5032337;28;20032;-60
2023/08/24 00:50:19;;;;;;;12.27;5.72;;;17.00;99.90;;;;;;5029978;28;22591;-60
2023/08/24 00:52:47;;;;;;;11.27;5.80;;;17.10;99.90;;;;;;5037456;28;20095;-63
2023/08/24 00:55:13;;;;;;;18.20;5.72;;;17.10;99.90;;;;;;5035117;28;20391;-63
2023/08/24 00:57:41;;;;;;;13.07;5.18;;;17.00;99.90;;;;;;5034974;28;20031;-63
2023/08/24 01:00:10;;;;;;;10.82;4.82;;;17.00;99.90;;;;;;5030710;28;20032;-64
2023/08/24 01:02:37;;;;;;;12.77;6.25;;;17.00;99.90;;;;;;5030486;28;20483;-61
2023/08/24 01:05:04;;;;;;;15.25;6.85;;;17.00;99.90;;;;;;5032496;28;20488;-61
2023/08/24 01:07:31;;;;;;;14.05;6.25;;;17.00;99.90;;;;;;5032898;28;20016;-63
2023/08/24 01:09:57;;;;;;;19.85;6.68;;;17.00;99.90;;;;;;5030677;28;20053;-62
2023/08/24 01:12:31;;;;;;;9.05;5.60;;;16.90;99.90;;;;;;5041175;28;20072;-62
2023/08/24 01:15:07;;;;;;;;;;;16.90;99.90;;;;;;5035658;28;20036;-59
2023/08/24 01:17:33;;;;;;;15.40;6.28;;;16.90;99.90;;;;;;5032338;28;19919;-60
2023/08/24 01:19:59;;;;;;;16.23;5.75;;;16.90;99.90;;;;;;5030463;28;20041;-59
2023/08/24 01:22:27;;;;;;;14.68;5.95;;;16.90;99.90;;;;;;5032744;28;20025;-59
2023/08/24 01:25:14;;;;;;;14.30;6.22;;;17.00;99.90;;;;;;5030905;28;20097;-61
2023/08/24 01:27:42;;;;;;;10.48;5.60;;;17.00;99.90;;;;;;5039479;28;20388;-61
2023/08/24 01:30:08;;;;;;;10.93;6.05;;;17.00;99.90;;;;;;5033256;28;20026;-60
2023/08/24 01:32:34;;;;;;;12.52;6.32;;;17.00;99.90;;;;;;5030505;28;20029;-60
2023/08/24 01:35:02;;;;;;;13.98;5.65;;;17.10;99.90;;;;;;5034152;28;20104;-60
2023/08/24 01:37:28;;;;;;;16.55;6.25;;;17.10;99.90;;;;;;5033882;28;20033;-60
2023/08/24 01:40:13;;;;;;;12.13;5.82;;;17.10;99.90;;;;;;5035586;28;20041;-59
2023/08/24 01:42:51;;;;;;;18.77;6.68;;;17.20;99.90;;;;;;5031551;28;20120;-59
2023/08/24 01:45:18;;;;;;;10.75;5.97;;;17.30;99.90;;;;;;5031689;28;20380;-60
2023/08/24 01:47:46;;;;;;;14.45;6.03;;;17.30;99.90;;;;;;5030937;28;20020;-61
2023/08/24 01:50:11;;;;;;;15.98;6.05;;;17.30;99.90;;;;;;5033199;28;20506;-59
2023/08/24 01:52:37;;;;;;;11.70;5.70;;;17.30;99.90;;;;;;5029781;28;20037;-61
2023/08/24 01:55:03;;;;;;;11.23;6.38;;;17.30;99.90;;;;;;5034529;28;20030;-62
2023/08/24 01:57:29;;;;;;;11.95;5.38;;;17.20;99.90;;;;;;5033078;28;20040;-61
2023/08/24 01:59:54;;;;;;;15.60;6.07;;;17.20;99.90;;;;;;5035626;28;20033;-59
2023/08/24 02:02:21;;;;;;;13.32;5.78;;;17.20;99.90;;;;;;5029054;28;20051;-61
2023/08/24 02:04:46;;;;;;;9.95;6.10;;;17.20;99.90;;;;;;5029608;28;20029;-62
2023/08/24 02:07:12;;;;;;;10.20;5.60;;;17.20;99.90;;;;;;5028352;28;20643;-59
2023/08/24 02:09:37;;;;;;;10.90;5.65;;;17.20;99.90;;;;;;5030427;28;20492;-64
2023/08/24 02:12:03;;;;;;;9.25;5.97;;;17.20;99.90;;;;;;5032090;28;20039;-64
2023/08/24 02:14:29;;;;;;;10.48;6.10;;;17.20;99.90;;;;;;5032491;28;20037;-64
2023/08/24 02:16:54;;;;;;;13.00;5.85;;;17.20;99.90;;;;;;5033798;28;20246;-63
2023/08/24 02:19:20;;;;;;;10.18;5.95;;;17.20;99.90;;;;;;5032731;28;20030;-59
2023/08/24 02:21:45;;;;;;;11.48;6.55;;;17.20;99.90;;;;;;5038570;28;20037;-62
2023/08/24 02:24:11;;;;;;;12.85;5.75;;;17.20;99.90;;;;;;5040377;28;20099;-60
2023/08/24 02:26:36;;;;;;;13.35;6.43;;;17.20;99.90;;;;;;5033740;28;20037;-62
2023/08/24 02:29:02;;;;;;;12.02;6.05;;;17.20;99.90;;;;;;5035406;28;20029;-62
2023/08/24 02:31:28;;;;;;;17.70;6.78;;;17.20;99.90;;;;;;5040679;28;20027;-61
2023/08/24 02:33:54;;;;;;;8.48;5.63;;;17.10;99.90;;;;;;5038617;28;20021;-62
2023/08/24 02:36:19;;;;;;;8.93;6.18;;;17.10;99.90;;;;;;5041506;28;20112;-61
2023/08/24 02:38:45;;;;;;;11.80;6.72;;;17.20;99.90;;;;;;5035939;28;20033;-62
2023/08/24 02:41:10;;;;;;;11.93;6.43;;;17.20;99.90;;;;;;5033699;28;20044;-62
2023/08/24 02:43:36;;;;;;;9.95;6.32;;;17.30;99.90;;;;;;5030697;28;20026;-59
2023/08/24 02:46:07;;;;;;;11.05;5.90;;;17.30;99.90;;;;;;5033218;28;20096;-60
2023/08/24 02:48:34;;;;;;;12.80;6.10;;;17.40;99.90;;;;;;5029632;28;20036;-65
2023/08/24 02:51:00;;;;;;;14.30;6.47;;;17.40;99.90;;;;;;5035367;28;20513;-61
2023/08/24 02:53:27;;;;;;;10.90;5.97;;;17.50;99.90;;;;;;5037651;28;20166;-61
2023/08/24 02:55:53;;;;;;;12.20;5.90;;;17.50;99.90;;;;;;5034910;28;20507;-59
2023/08/24 02:58:19;;;;;;;10.93;6.13;;;17.50;99.90;;;;;;5030955;28;20499;-63
2023/08/24 03:00:45;;;;;;;17.30;5.95;;;17.40;99.90;;;;;;5033057;28;20034;-61
2023/08/24 03:03:10;;;;;;;12.02;6.80;;;17.50;99.90;;;;;;5038961;28;20048;-62
2023/08/24 03:05:36;;;;;;;12.80;5.57;;;17.50;99.90;;;;;;5036258;28;20402;-62
2023/08/24 03:08:04;;;;;;;9.48;5.40;;;17.50;99.90;;;;;;5037104;28;20383;-66
2023/08/24 03:10:30;;;;;;;13.05;5.45;;;17.60;99.90;;;;;;5034962;28;20043;-62
2023/08/24 03:12:55;;;;;;;14.15;5.65;;;17.60;99.90;;;;;;5040228;28;20041;-63
2023/08/24 03:15:21;;;;;;;11.93;7.07;;;17.70;99.90;;;;;;5032381;28;20040;-61
2023/08/24 03:17:47;;;;;;;15.73;6.30;;;17.70;99.90;;;;;;5032048;28;20041;-65
2023/08/24 03:20:13;;;;;;;15.23;5.70;;;17.80;99.90;;;;;;5031494;28;20035;-63
2023/08/24 03:22:40;;;;;;;16.52;6.40;;;17.80;99.90;;;;;;5034618;28;20029;-62
2023/08/24 03:25:06;;;;;;;16.35;6.63;;;17.70;99.90;;;;;;5034715;28;20041;-64
2023/08/24 03:27:32;;;;;;;19.33;6.63;;;17.70;99.90;;;;;;5035725;28;20455;-61
2023/08/24 03:29:57;;;;;;;13.27;5.72;;;17.80;99.90;;;;;;5040517;28;20129;-62
2023/08/24 03:32:23;;;;;;;11.65;6.10;;;17.70;99.90;;;;;;5033546;28;20135;-65
2023/08/24 03:34:48;;;;;;;8.73;6.20;;;17.80;99.90;;;;;;5034519;28;20041;-61
2023/08/24 03:37:14;;;;;;;18.13;5.68;;;17.80;99.90;;;;;;5035251;28;20143;-66
2023/08/24 03:39:41;;;;;;;10.13;6.15;;;17.80;99.90;;;;;;5033084;28;20037;-60
2023/08/24 03:42:07;;;;;;;9.82;5.82;;;17.80;99.90;;;;;;5037105;28;20017;-64
2023/08/24 03:44:32;;;;;;;10.57;6.53;;;17.80;99.90;;;;;;5036214;28;20029;-63
2023/08/24 03:46:58;;;;;;;15.77;6.30;;;17.80;99.90;;;;;;5031560;28;20065;-60
2023/08/24 03:49:24;;;;;;;9.43;5.78;;;17.80;99.90;;;;;;5031890;28;20025;-63
2023/08/24 03:51:50;;;;;;;12.05;5.53;;;17.80;99.90;;;;;;5035730;28;20036;-61
2023/08/24 03:54:15;;;;;;;9.82;5.70;;;17.80;99.90;;;;;;5033993;28;20056;-64
2023/08/24 03:56:41;;;;;;;10.52;5.55;;;17.90;99.90;;;;;;5037439;28;20593;-65
2023/08/24 03:59:06;;;;;;;13.15;5.55;;;18.00;99.90;;;;;;5032220;28;20029;-64
2023/08/24 04:01:32;;;;;;;10.15;5.15;;;18.00;99.90;;;;;;5035179;28;20410;-63
2023/08/24 04:03:57;;;;;;;9.60;5.82;;;17.90;99.90;;;;;;5043332;28;20043;-61
2023/08/24 04:06:23;;;;;;;14.48;6.63;;;17.90;99.90;;;;;;5031773;28;20033;-61
2023/08/24 04:08:49;;;;;;;14.63;6.00;;;17.90;99.90;;;;;;5036117;28;20082;-61
2023/08/24 04:11:15;;;;;;;18.80;5.90;;;17.90;99.90;;;;;;5037899;28;20033;-60
2023/08/24 04:13:40;;;;;;;13.70;6.18;;;17.90;99.90;;;;;;5032579;28;20036;-61
2023/08/24 04:16:06;;;;;;;13.95;6.53;;;17.90;99.90;;;;;;5034956;28;20033;-61
2023/08/24 04:18:31;;;;;;;14.43;6.05;;;17.90;99.90;;;;;;5039814;28;20051;-59
2023/08/24 04:20:57;;;;;;;14.48;6.88;;;17.90;99.90;;;;;;5040986;28;20083;-59
2023/08/24 04:23:29;;;;;;;11.88;5.75;;;17.90;99.90;;;;;;5039102;28;20071;-60
2023/08/24 04:25:55;;;;;;;9.82;5.60;;;17.90;99.90;;;;;;5040456;28;20017;-61
2023/08/24 04:28:21;;;;;;;12.30;6.75;;;18.00;99.90;;;;;;5039925;28;20032;-61
2023/08/24 04:30:54;;;;;;;15.05;6.13;;;18.00;99.90;;;;;;5036559;28;20399;-61
2023/08/24 04:33:20;;;;;;;10.83;6.10;;;18.00;99.90;;;;;;5039668;28;20041;-59
2023/08/24 04:35:50;;;;;;;11.55;6.50;;;18.00;99.90;;;;;;5041059;28;20411;-59
2023/08/24 04:38:16;;;;;;;11.80;5.82;;;18.00;99.90;;;;;;5038911;28;20021;-60
2023/08/24 04:41:00;;;;;;;10.60;6.10;;;18.00;99.90;;;;;;5048417;28;20040;-54
2023/08/24 04:43:26;;;;;;;9.00;5.50;;;18.10;99.90;;;;;;5033925;28;20029;-58
2023/08/24 04:45:54;;;;;;;13.32;6.05;;;18.10;99.90;;;;;;5040569;28;20021;-60
2023/08/24 04:48:20;;;;;;;18.20;6.90;;;18.20;99.90;;;;;;5035026;28;20030;-64
2023/08/24 04:50:46;;;;;;;13.27;8.27;;;18.20;99.90;;;;;;5036994;28;20037;-63
2023/08/24 04:53:16;;;;;;;14.85;8.02;;;18.20;99.90;;;;;;5033285;28;20163;-62
2023/08/24 04:55:42;;;;;;;13.68;7.07;;;18.20;99.90;;;;;;5033555;28;20927;-63
2023/08/24 04:58:08;;;;;;;16.45;8.70;;;18.20;99.90;;;;;;5036702;28;20070;-65
2023/08/24 05:00:35;;;;;;;20.05;8.32;;;18.10;99.90;;;;;;5031455;28;20093;-63
2023/08/24 05:03:04;;;;;;;14.88;8.60;;;18.20;99.90;;;;;;5031370;28;20021;-63
2023/08/24 05:05:31;;;;;;;18.98;9.70;;;18.20;99.90;;;;;;5030508;28;20033;-62
2023/08/24 05:07:57;;;;;;;17.08;10.32;;;18.20;99.90;;;;;;5029751;28;20040;-64
2023/08/24 05:10:23;;;;;;;19.05;11.40;;;18.10;99.90;;;;;;5029541;28;20044;-59
2023/08/24 05:12:48;;;;;;;16.65;10.63;;;18.10;99.90;;;;;;5032744;28;20034;-60
2023/08/24 05:15:14;;;;;;;21.80;11.20;;;18.10;99.90;;;;;;5030534;28;20040;-62
2023/08/24 05:17:40;;;;;;;16.92;9.52;;;18.10;99.90;;;;;;5028854;28;20029;-60
2023/08/24 05:20:08;;;;;;;25.40;11.25;;;18.10;99.90;;;;;;5030132;28;20526;-59
2023/08/24 05:22:33;;;;;;;23.40;10.98;;;18.10;99.90;;;;;;5040089;28;20029;-58
2023/08/24 05:24:59;;;;;;;18.08;11.30;;;18.10;99.90;;;;;;5031145;28;20447;-62
2023/08/24 05:27:24;;;;;;;19.15;10.65;;;18.20;99.90;;;;;;5035526;28;20033;-57
2023/08/24 05:29:50;;;;;;;23.27;11.38;;;18.20;99.90;;;;;;5032113;28;20025;-53
2023/08/24 05:32:16;;;;;;;20.33;10.05;;;18.20;99.90;;;;;;5043809;28;20025;-53
2023/08/24 05:34:42;;;;;;;21.90;11.13;;;18.20;99.90;;;;;;5034738;28;20052;-54
2023/08/24 05:37:07;;;;;;;15.02;10.45;;;18.10;99.90;;;;;;5033104;28;20403;-61
2023/08/24 05:39:33;;;;;;;14.90;9.63;;;18.10;99.90;;;;;;5032898;28;20398;-56
2023/08/24 05:41:58;;;;;;;20.10;10.18;;;18.20;99.90;;;;;;5038953;28;20505;-55
2023/08/24 05:44:24;;;;;;;19.98;9.82;;;18.20;99.90;;;;;;5036977;28;20029;-54
2023/08/24 05:46:50;;;;;;;15.80;8.07;;;18.20;99.90;;;;;;5045728;28;20017;-54
2023/08/24 05:49:15;;;;;;;16.50;9.70;;;18.20;99.90;;;;;;5040224;28;20029;-54
2023/08/24 05:51:41;;;;;;;16.45;8.80;;;18.20;99.90;;;;;;5043481;28;20390;-53
2023/08/24 05:54:07;;;;;;;18.52;10.20;;;18.20;99.90;;;;;;5035982;28;20449;-54
2023/08/24 05:56:32;;;;;;;13.82;9.57;;;18.20;99.90;;;;;;5041223;28;20033;-56
2023/08/24 05:58:58;;;;;;;13.43;9.63;;;18.30;99.90;;;;;;5034929;28;20033;-58
2023/08/24 06:01:24;;;;;;;17.17;10.43;;;18.30;99.90;;;;;;5039105;28;20059;-57
2023/08/24 06:03:50;;;;;;;16.83;9.50;;;18.30;99.90;;;;;;5039856;28;20373;-59
2023/08/24 06:06:16;;;;;;;15.13;9.05;;;18.30;99.90;;;;;;5036796;28;20124;-55
2023/08/24 06:08:42;;;;;;;17.75;9.68;;;18.30;99.90;;;;;;5034978;28;20071;-55
2023/08/24 06:11:08;;;;;;;22.15;11.32;;;18.20;99.90;;;;;;5041282;28;20399;-53
2023/08/24 06:13:33;;;;;;;18.25;9.82;;;18.30;99.90;;;;;;5036095;28;20033;-57
2023/08/24 06:15:59;;;;;;;19.75;10.77;;;18.20;99.90;;;;;;5043663;28;20037;-57
2023/08/24 06:18:24;;;;;;;18.27;11.75;;;18.20;99.90;;;;;;5036597;28;20034;-54
2023/08/24 06:20:50;;;;;;;15.15;10.60;;;18.30;99.90;;;;;;5040355;28;20048;-55
2023/08/24 06:23:19;;;;;;;15.75;10.90;;;18.20;99.90;;;;;;5041209;28;20028;-60
2023/08/24 06:25:45;;;;;;;17.15;10.45;;;18.30;99.90;;;;;;5038011;28;20048;-54
2023/08/24 06:28:11;;;;;;;18.45;10.70;;;18.40;99.90;;;;;;5040165;28;20021;-56
2023/08/24 06:30:38;;;;;;;17.80;11.07;;;18.40;99.90;;;;;;5039686;28;20025;-55
2023/08/24 06:33:04;;;;;;;21.70;11.15;;;18.50;99.90;;;;;;5035308;28;20025;-57
2023/08/24 06:35:30;;;;;;;19.70;12.13;;;18.50;99.90;;;;;;5044389;28;20051;-57
2023/08/24 06:37:56;;;;;;;23.05;12.27;;;18.60;99.90;;;;;;5042091;28;20041;-57
2023/08/24 06:40:21;;;;;;;16.90;11.40;;;18.60;99.90;;;;;;5042687;28;20037;-57
2023/08/24 06:42:47;;;;;;;20.20;12.75;;;18.60;99.90;;;;;;5044914;28;20036;-58
2023/08/24 06:45:12;;;;;;;22.27;11.73;;;18.70;99.90;;;;;;5044787;28;20637;-59
2023/08/24 06:47:39;;;;;;;18.63;11.40;;;18.70;99.90;;;;;;5042951;28;20415;-55
2023/08/24 06:50:06;;;;;;;14.63;10.68;;;18.80;99.90;;;;;;5043569;28;20083;-54
2023/08/24 06:52:32;;;;;;;17.92;10.57;;;18.90;99.90;;;;;;5040051;28;20029;-54
2023/08/24 06:54:57;;;;;;;17.42;9.85;;;18.90;99.90;;;;;;5045161;28;20400;-56
2023/08/24 06:57:23;;;;;;;20.70;10.57;;;19.00;99.90;;;;;;5043948;28;20061;-58
2023/08/24 06:59:50;;;;;;;15.65;10.40;;;19.10;99.90;;;;;;5046294;28;20040;-53
2023/08/24 07:02:17;;;;;;;21.75;9.88;;;19.10;99.90;;;;;;5044621;28;20044;-56
2023/08/24 07:04:44;;;;;;;26.20;12.48;;;19.10;99.90;;;;;;5044436;28;20024;-56
2023/08/24 07:07:10;;;;;;;25.98;9.23;;;19.10;99.90;;;;;;5040181;28;20429;-56
2023/08/24 07:09:35;;;;;;;16.02;8.93;;;19.20;99.90;;;;;;5042636;28;20021;-57
2023/08/24 07:12:06;;;;;;;20.25;8.13;;;19.30;99.90;;;;;;5046198;28;20116;-54
2023/08/24 07:14:33;;;;;;;20.83;8.38;;;19.30;99.90;;;;;;5041793;28;20408;-57
2023/08/24 07:16:58;;;;;;;17.13;8.00;;;19.40;99.90;;;;;;5047224;28;20453;-57
2023/08/24 07:19:24;;;;;;;12.25;7.80;;;19.50;99.90;;;;;;5044610;28;20029;-54
2023/08/24 07:21:50;;;;;;;18.08;8.05;;;19.50;99.90;;;;;;5047452;28;20038;-56
2023/08/24 07:24:18;;;;;;;14.30;8.15;;;19.60;99.90;;;;;;5039707;28;20029;-56
2023/08/24 07:26:45;;;;;;;16.92;8.13;;;19.60;99.90;;;;;;5048301;28;20053;-54
2023/08/24 07:29:10;;;;;;;12.77;7.40;;;19.70;99.90;;;;;;5039027;28;20029;-57
2023/08/24 07:31:36;;;;;;;15.65;7.05;;;19.80;99.90;;;;;;5043452;28;20155;-54
2023/08/24 07:34:03;;;;;;;11.30;7.10;;;19.80;99.90;;;;;;5040212;28;20025;-54
2023/08/24 07:36:29;;;;;;;12.98;7.68;;;19.90;99.90;;;;;;5047952;28;20030;-56
2023/08/24 07:38:54;;;;;;;15.88;6.47;;;20.00;99.90;;;;;;5042938;28;20395;-55
2023/08/24 07:41:20;;;;;;;8.88;5.63;;;20.10;99.90;;;;;;5046897;28;20037;-54
2023/08/24 07:43:45;;;;;;;8.65;5.78;;;20.20;99.90;;;;;;5038908;28;20029;-56
2023/08/24 07:46:11;;;;;;;6.97;5.35;;;20.20;99.90;;;;;;5041569;28;20040;-54
2023/08/24 07:48:36;;;;;;;9.80;5.05;;;20.30;99.90;;;;;;5035955;28;20550;-57
2023/08/24 07:51:02;;;;;;;10.45;5.15;;;20.50;99.90;;;;;;5048037;28;20032;-58
2023/08/24 07:53:28;;;;;;;9.20;5.03;;;20.60;99.90;;;;;;5047143;28;20384;-61
2023/08/24 07:55:57;;;;;;;10.15;5.13;;;20.70;99.90;;;;;;5044158;28;20209;-58
2023/08/24 07:58:23;;;;;;;14.13;4.70;;;20.80;99.90;;;;;;5042827;28;20451;-59
2023/08/24 08:00:52;;;;;;;10.32;5.35;;;20.90;99.90;;;;;;5040219;28;20037;-58
2023/08/24 08:03:18;;;;;;;9.48;4.90;;;21.00;99.90;;;;;;5044082;28;20083;-56
2023/08/24 08:05:46;;;;;;;8.95;4.32;;;21.20;99.90;;;;;;5038363;28;20029;-57
2023/08/24 08:08:13;;;;;;;7.60;5.03;;;21.30;99.90;;;;;;5037058;28;20084;-58
2023/08/24 08:10:41;;;;;;;10.93;4.75;;;21.60;99.90;;;;;;5044043;28;20499;-60
2023/08/24 08:13:07;;;;;;;9.10;4.28;;;21.60;99.90;;;;;;5040796;28;20056;-55
2023/08/24 08:15:33;;;;;;;8.23;4.50;;;21.70;99.90;;;;;;5038225;28;20094;-56
2023/08/24 08:17:59;;;;;;;7.93;4.40;;;21.90;99.90;;;;;;5042782;28;20033;-54
2023/08/24 08:20:25;;;;;;;6.97;4.10;;;22.00;99.90;;;;;;5043959;28;20104;-57
2023/08/24 08:22:50;;;;;;;6.43;3.67;;;22.20;99.90;;;;;;5040073;28;20052;-58
2023/08/24 08:25:19;;;;;;;11.18;3.75;;;22.30;99.90;;;;;;5039796;28;20752;-58
2023/08/24 08:27:44;;;;;;;7.82;3.75;;;22.50;99.90;;;;;;5037205;28;20037;-58
2023/08/24 08:30:11;;;;;;;10.65;3.53;;;22.50;99.90;;;;;;5043209;28;20399;-56
2023/08/24 08:32:36;;;;;;;8.23;3.90;;;22.60;99.90;;;;;;5042809;28;20568;-57
2023/08/24 08:35:04;;;;;;;8.82;3.65;;;22.70;99.90;;;;;;5038962;28;20104;-58
2023/08/24 08:37:31;;;;;;;8.80;4.07;;;22.90;99.90;;;;;;5039293;28;20029;-56
2023/08/24 08:39:57;;;;;;;8.23;3.70;;;23.00;99.90;;;;;;5042816;28;20029;-55
2023/08/24 08:42:23;;;;;;;10.05;3.53;;;23.10;99.90;;;;;;5038322;28;20557;-58
2023/08/24 08:44:49;;;;;;;7.15;3.33;;;23.20;99.90;;;;;;5035630;28;20033;-57
2023/08/24 08:47:15;;;;;;;11.07;3.78;;;23.40;99.90;;;;;;5038410;28;20025;-60
2023/08/24 08:49:43;;;;;;;6.35;3.85;;;23.50;99.90;;;;;;5038264;28;20403;-58
2023/08/24 08:52:09;;;;;;;5.00;2.90;;;23.60;99.90;;;;;;5045147;28;20436;-58
2023/08/24 08:54:35;;;;;;;5.68;3.05;;;23.70;99.90;;;;;;5032650;28;20028;-58
2023/08/24 08:57:01;;;;;;;4.68;3.30;;;23.80;99.90;;;;;;5044580;28;20391;-56
2023/08/24 08:59:30;;;;;;;7.57;3.25;;;23.90;99.90;;;;;;5045259;28;20061;-55
2023/08/24 09:01:56;;;;;;;9.80;3.00;;;24.10;99.90;;;;;;5039114;28;20055;-55
2023/08/24 09:04:23;;;;;;;9.38;3.22;;;24.20;99.90;;;;;;5037949;28;20068;-57
2023/08/24 09:06:49;;;;;;;5.05;3.10;;;24.40;99.90;;;;;;5041573;28;20025;-58
2023/08/24 09:09:15;;;;;;;6.30;3.38;;;24.50;99.90;;;;;;5033785;28;20464;-56
2023/08/24 09:11:42;;;;;;;8.43;3.72;;;24.70;99.90;;;;;;5039061;28;20052;-58
2023/08/24 09:14:07;;;;;;;7.03;3.42;;;24.80;99.90;;;;;;5036555;28;20036;-60
2023/08/24 09:16:34;;;;;;;7.50;3.00;;;25.00;99.90;;;;;;5036304;28;20045;-58
2023/08/24 09:19:05;;;;;;;5.55;2.80;;;25.10;99.90;;;;;;5034568;28;20024;-55
2023/08/24 09:21:30;;;;;;;7.68;2.85;;;25.20;99.90;;;;;;5027321;28;20159;-59
2023/08/24 09:23:56;;;;;;;9.70;3.90;;;25.40;99.90;;;;;;5029355;28;20033;-57
2023/08/24 09:26:32;;;;;;;4.80;3.47;;;25.60;99.90;;;;;;5035720;28;20465;-57
2023/08/24 09:28:58;;;;;;;10.02;3.50;;;25.70;99.90;;;;;;5043590;28;20009;-57
2023/08/24 09:31:43;;;;;;;5.68;3.03;;;25.90;99.90;;;;;;5040067;28;20034;-60
2023/08/24 09:34:10;;;;;;;5.88;3.22;;;26.10;99.90;;;;;;5038611;28;20629;-58
2023/08/24 09:36:36;;;;;;;7.53;3.22;;;26.20;99.90;;;;;;5040765;28;20041;-57
2023/08/24 09:39:06;;;;;;;4.55;2.72;;;26.30;99.90;;;;;;5038862;28;20509;-56
2023/08/24 09:41:40;;;;;;;3.83;2.97;;;26.50;99.90;;;;;;5044763;28;20047;-57
2023/08/24 09:44:06;;;;;;;6.45;3.22;;;26.70;99.90;;;;;;5040445;28;20032;-54
2023/08/24 09:46:32;;;;;;;6.07;3.00;;;26.70;99.90;;;;;;5036245;28;20041;-58
2023/08/24 09:49:00;;;;;;;5.20;2.90;;;26.80;99.90;;;;;;5040005;28;20017;-60
2023/08/24 09:51:27;;;;;;;9.38;3.30;;;26.80;99.90;;;;;;5034699;28;20037;-54
2023/08/24 09:53:57;;;;;;;7.80;2.80;;;26.90;99.90;;;;;;5045475;28;20049;-56
2023/08/24 09:56:27;;;;;;;6.80;3.05;;;27.00;99.90;;;;;;5035248;28;20037;-53
2023/08/24 09:58:55;;;;;;;8.95;3.42;;;27.00;99.90;;;;;;5043968;28;20025;-53
2023/08/24 10:01:21;;;;;;;6.13;2.72;;;27.10;99.90;;;;;;5043081;28;20038;-51
2023/08/24 10:03:51;;;;;;;4.63;2.75;;;27.20;99.90;;;;;;5044367;28;20441;-54
2023/08/24 10:06:21;;;;;;;7.65;2.38;;;27.30;99.90;;;;;;5038404;28;20033;-56
2023/08/24 10:08:54;;;;;;;5.47;2.75;;;27.50;99.90;;;;;;5040186;28;20026;-52
2023/08/24 10:11:25;;;;;;;5.43;2.78;;;27.70;99.90;;;;;;5039319;28;20115;-55
2023/08/24 10:14:15;;;;;;;17.13;2.55;;;27.60;99.90;;;;;;5043887;28;20033;-56
2023/08/24 10:16:42;;;;;;;6.10;2.90;;;27.60;99.90;;;;;;5040681;28;20080;-55
2023/08/24 10:19:08;;;;;;;8.27;2.80;;;27.70;99.90;;;;;;5044392;28;20030;-55
2023/08/24 10:21:37;;;;;;;7.20;2.47;;;27.70;99.90;;;;;;5048822;28;20115;-57
2023/08/24 10:24:03;;;;;;;10.88;2.60;;;27.70;99.90;;;;;;5044191;28;20025;-56
2023/08/24 10:26:29;;;;;;;7.80;2.28;;;27.50;99.90;;;;;;5044524;28;20431;-54
2023/08/24 10:28:56;;;;;;;6.15;2.30;;;27.50;99.90;;;;;;5044673;28;20021;-58
2023/08/24 10:31:23;;;;;;;6.38;2.35;;;27.50;99.90;;;;;;5046795;28;20063;-53
2023/08/24 10:33:49;;;;;;;6.93;2.72;;;27.50;99.90;;;;;;5042723;28;20025;-56
2023/08/24 10:36:17;;;;;;;4.22;2.55;;;27.60;99.90;;;;;;5050431;28;20044;-57
2023/08/24 10:38:43;;;;;;;14.80;3.10;;;27.70;99.90;;;;;;5037729;28;20128;-58
2023/08/24 10:41:12;;;;;;;9.02;2.60;;;27.80;99.90;;;;;;5047774;28;20541;-58
2023/08/24 10:43:38;;;;;;;10.52;2.80;;;27.60;99.90;;;;;;5039712;28;20457;-57
2023/08/24 10:46:10;;;;;;;13.75;2.90;;;27.70;99.90;;;;;;5044146;28;20026;-56
2023/08/24 10:48:42;;;;;;;6.18;2.55;;;27.80;99.90;;;;;;5037980;28;20398;-61
2023/08/24 10:51:13;;;;;;;5.38;2.75;;;28.00;99.90;;;;;;5041921;28;20045;-55
2023/08/24 10:53:59;;;;;;;11.52;2.78;;;28.20;99.90;;;;;;5037468;28;20095;-58
2023/08/24 10:56:38;;;;;;;7.93;3.20;;;28.20;99.90;;;;;;5044294;28;20447;-56
2023/08/24 10:59:12;;;;;;;9.52;2.63;;;28.20;99.90;;;;;;5042571;28;20026;-57
2023/08/24 11:01:42;;;;;;;8.20;2.63;;;28.20;99.90;;;;;;5040637;28;20032;-58
2023/08/24 11:04:08;;;;;;;8.98;2.22;;;28.20;99.90;;;;;;5052572;28;20095;-55
2023/08/24 11:06:34;;;;;;;6.60;2.63;;;28.20;99.90;;;;;;5039031;28;20112;-57
2023/08/24 11:09:13;;;;;;;6.57;2.50;;;28.20;99.90;;;;;;5048209;28;20487;-55
2023/08/24 11:11:39;;;;;;;9.02;3.03;;;28.00;99.90;;;;;;5036830;28;20120;-58
2023/08/24 11:14:32;;;;;;;6.65;2.72;;;27.80;99.90;;;;;;5043445;28;20029;-57
2023/08/24 11:17:16;;;;;;;12.65;2.78;;;27.80;99.90;;;;;;5039454;28;20066;-58
2023/08/24 11:19:54;;;;;;;;;;;27.80;99.90;;;;;;5044842;28;20044;-55
2023/08/24 11:22:23;;;;;;;8.77;3.22;;;27.70;99.90;;;;;;5047214;28;19913;-57
2023/08/24 11:24:49;;;;;;;6.20;2.90;;;27.70;99.90;;;;;;5043284;28;20028;-58
2023/08/24 11:27:16;;;;;;;10.80;2.67;;;27.60;99.90;;;;;;5037469;28;20392;-56
2023/08/24 11:29:42;;;;;;;10.75;2.88;;;27.60;99.90;;;;;;5038251;28;20491;-56
2023/08/24 11:32:07;;;;;;;9.55;3.00;;;27.50;99.90;;;;;;5039806;28;20087;-58
2023/08/24 11:34:35;;;;;;;8.40;2.63;;;27.50;99.90;;;;;;5044477;28;20059;-57
2023/08/24 11:37:01;;;;;;;7.28;2.97;;;27.30;99.90;;;;;;5039541;28;20055;-57
2023/08/24 11:39:31;;;;;;;6.90;3.20;;;27.20;99.90;;;;;;5044339;28;20030;-54
2023/08/24 11:42:04;;;;;;;10.45;3.65;;;27.10;99.90;;;;;;5037989;28;20418;-54
2023/08/24 11:44:48;;;;;;;8.07;2.60;;;27.00;99.90;;;;;;5045915;28;20032;-57
2023/08/24 11:47:14;;;;;;;4.15;2.85;;;27.00;99.90;;;;;;5041341;28;20299;-57
2023/08/24 11:49:41;;;;;;;5.38;2.80;;;26.90;99.90;;;;;;5037257;28;20029;-56
2023/08/24 11:52:08;;;;;;;6.07;3.28;;;26.70;99.90;;;;;;5046084;28;20051;-60
2023/08/24 11:54:38;;;;;;;3.65;2.30;;;26.60;99.90;;;;;;5043626;28;20033;-57
2023/08/24 11:57:06;;;;;;;7.15;3.15;;;26.60;99.90;;;;;;5040181;28;20091;-58
2023/08/24 11:59:32;;;;;;;9.43;3.47;;;26.80;99.90;;;;;;5034142;28;20029;-54
2023/08/24 12:01:58;;;;;;;6.18;2.83;;;26.80;99.90;;;;;;5048294;28;20040;-59
2023/08/24 12:04:24;;;;;;;6.15;2.63;;;27.00;99.90;;;;;;5041289;28;20025;-57
2023/08/24 12:06:50;;;;;;;9.85;3.47;;;26.90;99.90;;;;;;5052252;28;20383;-55
2023/08/24 12:09:15;;;;;;;7.93;2.90;;;27.00;99.90;;;;;;5050649;28;20479;-58
2023/08/24 12:11:41;;;;;;;5.03;2.45;;;26.90;99.90;;;;;;5043655;28;20040;-57
2023/08/24 12:14:09;;;;;;;7.88;2.90;;;26.90;99.90;;;;;;5036320;28;20491;-59
2023/08/24 12:16:35;;;;;;;5.70;2.65;;;27.00;99.90;;;;;;5043714;28;20165;-56
2023/08/24 12:19:03;;;;;;;5.78;3.00;;;26.90;99.90;;;;;;5043845;28;20090;-56
2023/08/24 12:21:29;;;;;;;6.38;2.53;;;26.80;99.90;;;;;;5044355;28;20036;-57
2023/08/24 12:23:59;;;;;;;7.93;2.75;;;26.80;99.90;;;;;;5051784;28;20022;-55
2023/08/24 12:26:26;;;;;;;8.68;3.10;;;26.80;99.90;;;;;;5034131;28;20039;-53
2023/08/24 12:28:53;;;;;;;7.32;2.90;;;26.70;99.90;;;;;;5047529;28;20021;-57
2023/08/24 12:31:19;;;;;;;8.38;3.65;;;26.50;99.90;;;;;;5051587;28;20033;-57
2023/08/24 12:33:46;;;;;;;7.30;3.38;;;26.30;99.90;;;;;;5046353;28;20020;-59
2023/08/24 12:36:12;;;;;;;5.45;2.60;;;26.10;99.90;;;;;;5058462;28;22100;-57
2023/08/24 12:38:38;;;;;;;18.27;3.63;;;25.90;99.90;;;;;;5050945;28;20067;-59
2023/08/24 12:41:04;;;;;;;10.60;4.05;;;25.90;99.90;;;;;;5057922;28;20028;-59